Address 0x3a741c61e701b6eeaa4fbe48249037302ce6dcd2 2

 
 
Txn Hash Method
Block
From
To
Value [Txn Fee]
0x7d1b55994a5cb8f0fd8251418ae1c27130cd18d78710ee23c604bfc7df984277Transfer102231532021-08-21 13:08:0934 days 4 hrs ago0x3a741c61e701b6eeaa4fbe48249037302ce6dcd2OUT0x1f49ed3c95e43daaef7eec4904574a09468dcb5d11.407725795554159 BNB0.000105
0xb882cc5c0f2c2cd343207f38ca31886fe68034196896745621525671bee2c3a00x09a0adce100555782021-08-15 16:47:3040 days 43 mins ago0x3a741c61e701b6eeaa4fbe48249037302ce6dcd2OUT 0x3333483d8748766b26371f54bc24a52a69c00c990 BNB0.015014552973
0x763a2b3a852f3df9835d5c99fb3e057c6eb4619171be8bef34e48a8f2b5e98fc0x09a0adce100549012021-08-15 16:13:3940 days 1 hr ago0x3a741c61e701b6eeaa4fbe48249037302ce6dcd2OUT 0x3333483d8748766b26371f54bc24a52a69c00c990 BNB0.000409078196
0x3955400d18afb69a38f3e10e85a57e406433b64658a750beb8816c27f310924b0x09a0adce100546942021-08-15 16:03:1840 days 1 hr ago0x3a741c61e701b6eeaa4fbe48249037302ce6dcd2OUT 0x4444400d7ad0cced44da6337869e4b12cbf2490c0 BNB0.038845032155
0xbe013661198f3207bf452f62d3570914c03e06f922d276b79c41b65c770249820x09a0adce100542822021-08-15 15:42:4140 days 1 hr ago0x3a741c61e701b6eeaa4fbe48249037302ce6dcd2OUT 0x3333483d8748766b26371f54bc24a52a69c00c990 BNB0.00101451
0x3c03d39e1140e21c52a6409f0b9acf24882b722968d62206eeecf59569a8fbd50x09a0adce100313402021-08-14 20:34:5740 days 20 hrs ago0x3a741c61e701b6eeaa4fbe48249037302ce6dcd2OUT 0x00003aaa9eb61250a2793d66200891ee8efdc9590 BNB0.011753491328
0x6072c8ce0441d420f2887e65b9f8e32d1b1d742767b0994dc61a070192a33df60x09a0adce100070062021-08-14 0:08:0441 days 17 hrs ago0x3a741c61e701b6eeaa4fbe48249037302ce6dcd2OUT 0x00003aaa9eb61250a2793d66200891ee8efdc9590 BNB0.000169085
0x2f72eaac22be40975aff829a6733075e49f8900080d31f497b5a6504d0170b0dTransfer100069302021-08-14 0:04:1541 days 17 hrs ago0x3a741c61e701b6eeaa4fbe48249037302ce6dcd2SELF0x3a741c61e701b6eeaa4fbe48249037302ce6dcd20 BNB0.000970210206
0xd626735fe8367a68377737afadb7b15762fbd3aac9f8694149d3551cd6f278cbTransfer100068062021-08-13 23:58:0341 days 17 hrs ago0x3a741c61e701b6eeaa4fbe48249037302ce6dcd2SELF0x3a741c61e701b6eeaa4fbe48249037302ce6dcd20 BNB0.00012705231
0xb31b1ecde04b05ad5cf2b84f9785cb93a08caad7bd4fc21c6472bb594416a8a80x09a0adce100065532021-08-13 23:45:0341 days 17 hrs ago0x3a741c61e701b6eeaa4fbe48249037302ce6dcd2OUT 0x00003aaa9eb61250a2793d66200891ee8efdc9590 BNB0.011806236141
0x1e965e93f34224518aae46aea3d45629dbbd27362d8253156511e29f27d42b900x09a0adce100064122021-08-13 23:37:4541 days 17 hrs ago0x3a741c61e701b6eeaa4fbe48249037302ce6dcd2OUT 0x00003aaa9eb61250a2793d66200891ee8efdc9590 BNB0.00613309775
0x2726da1422926db25c5723aed4b29c1ab9925c4191267e7d8393b18871f52c150x09a0adce100063232021-08-13 23:32:2741 days 17 hrs ago0x3a741c61e701b6eeaa4fbe48249037302ce6dcd2OUT 0x00003aaa9eb61250a2793d66200891ee8efdc9590 BNB0.012138132748
0xa2381ac886822fe3943c70233f94e40ebc3cd7feb4b6b38b53db88de960982ae0x09a0adce100061902021-08-13 23:24:3241 days 18 hrs ago0x3a741c61e701b6eeaa4fbe48249037302ce6dcd2OUT 0x00003aaa9eb61250a2793d66200891ee8efdc9590 BNB0.000202902
0x661e6650b395af5ac1cae3efd726cc1048472ef1adedd5da1e7579e5b8e6497d0x09a0adce100060692021-08-13 23:17:2241 days 18 hrs ago0x3a741c61e701b6eeaa4fbe48249037302ce6dcd2OUT 0x00003aaa9eb61250a2793d66200891ee8efdc9590 BNB0.005292047837
0x436dae0d97b2833699a383578fe29a91a599b052395d30b5a3a19b727dfc85070x09a0adce100058012021-08-13 23:02:2841 days 18 hrs ago0x3a741c61e701b6eeaa4fbe48249037302ce6dcd2OUT 0x4444400d7ad0cced44da6337869e4b12cbf2490c0 BNB0.002675741899
0xf68bb82e0aec50bc796f4ad0650fb26a04a89b9c59281e0e46ee6cca7f1f896aTransfer100057372021-08-13 22:59:1641 days 18 hrs ago0x3a741c61e701b6eeaa4fbe48249037302ce6dcd2SELF0x3a741c61e701b6eeaa4fbe48249037302ce6dcd20 BNB0.00012705231
0x2ee22fad7d4259254f0647fa0081f2d7e6d8f5c16799584c5b7bd83ec4fc0b9fTransfer100055832021-08-13 22:51:3441 days 18 hrs ago0x3a741c61e701b6eeaa4fbe48249037302ce6dcd2SELF0x3a741c61e701b6eeaa4fbe48249037302ce6dcd20 BNB0.0004620042
0x30083fa7d6f8435bcffe555e470834db5ff71bbc7668a94d3f9963dd5983090e0x09a0adce100054232021-08-13 22:43:3441 days 18 hrs ago0x3a741c61e701b6eeaa4fbe48249037302ce6dcd2OUT 0x00003aaa9eb61250a2793d66200891ee8efdc9590 BNB0.004278481117
0x543e8d13eab28cdc0c2515d8655bac428900c217e19141c0180533385a0d28f3Transfer100053422021-08-13 22:39:3141 days 18 hrs ago0x3a741c61e701b6eeaa4fbe48249037302ce6dcd2SELF0x3a741c61e701b6eeaa4fbe48249037302ce6dcd20 BNB0.00034537702
0xdda0b26e3f5900870837c493df7d0a386102ec6ac06703dce5b81c387ec178c00x09a0adce100052392021-08-13 22:34:2241 days 18 hrs ago0x3a741c61e701b6eeaa4fbe48249037302ce6dcd2OUT 0x3333483d8748766b26371f54bc24a52a69c00c990 BNB0.000694250122
0x9e7c9151b0f5e64f0fe9cec968ec1ff9992b52e3067c11bc520a9581546c11570x09a0adce100051422021-08-13 22:29:3141 days 19 hrs ago0x3a741c61e701b6eeaa4fbe48249037302ce6dcd2OUT 0x00003aaa9eb61250a2793d66200891ee8efdc9590 BNB0.001642574876
0x91fc8cb4101275b28e056adb288b2c4efe5d4f656ddb6f77c2bc68856abdc001Transfer100050572021-08-13 22:25:1641 days 19 hrs ago0x3a741c61e701b6eeaa4fbe48249037302ce6dcd2SELF0x3a741c61e701b6eeaa4fbe48249037302ce6dcd20 BNB0.000162983531
0x3b5139481cc9e7e80bb20026f5a697e4192475d4d5c6d4ed32f757e9b859b8cb0x09a0adce100048502021-08-13 22:14:5541 days 19 hrs ago0x3a741c61e701b6eeaa4fbe48249037302ce6dcd2OUT 0x3333483d8748766b26371f54bc24a52a69c00c990 BNB0.00252634
0x128e7883adccec4578028b2da23295450eededf1f6b7d82416b6e018738a34b20x09a0adce100045942021-08-13 22:02:0741 days 19 hrs ago0x3a741c61e701b6eeaa4fbe48249037302ce6dcd2OUT 0x00003aaa9eb61250a2793d66200891ee8efdc9590 BNB0.003724515809
0x893588e823e321eff572ad9925506c0875fe905b288d439e25a739c2f7c380180x09a0adce100044912021-08-13 21:56:5841 days 19 hrs ago0x3a741c61e701b6eeaa4fbe48249037302ce6dcd2OUT 0x00003aaa9eb61250a2793d66200891ee8efdc9590 BNB0.004977040147
[ Download CSV Export 
Parent Txn Hash Block From To Value
Loading

Contract Name:
0 BNB

Compiler Version
0

Optimization Enabled:
0 BNB

Other Settings:
-NA-
Block Transaction Gas Used Reward
Age Block Fee Address BC Fee Address Voting Power Jailed Incoming
Block Uncle Number Difficulty Gas Used Reward
Loading
Loading
Make sure to use the "Vote Down" button for any spammy posts, and the "Vote Up" for interesting conversations.